Time;durP1;ratioP1;P1;durP2;ratioP2;P2;SDS_P1;SDS_P2;PMS_P1;PMS_P2;Temp;Humidity;BMP_temperature;BMP_pressure;BME280_temperature;BME280_humidity;BME280_pressure;Samples;Min_cycle;Max_cycle;Signal;HPM_P1;HPM_P2
2022/04/11 00:02:29;;;;;;;2.87;2.58;;;9.10;99.90;;;;;;1917003;75;21139;-90
2022/04/11 00:05:22;;;;;;;4.20;2.52;;;9.20;99.90;;;;;;1935245;73;21179;-90
2022/04/11 00:08:14;;;;;;;3.30;2.45;;;9.20;99.90;;;;;;1937371;73;21067;-91
2022/04/11 00:11:07;;;;;;;3.20;2.35;;;9.20;99.90;;;;;;1904724;75;21165;-89
2022/04/11 00:13:59;;;;;;;4.60;2.25;;;9.30;99.90;;;;;;1904744;75;21133;-90
2022/04/11 00:16:51;;;;;;;3.90;2.20;;;9.30;99.90;;;;;;1904223;74;21606;-89
2022/04/11 00:19:42;;;;;;;4.33;2.70;;;9.30;99.90;;;;;;1902502;75;21057;-90
2022/04/11 00:22:35;;;;;;;4.80;2.60;;;9.20;99.90;;;;;;1902762;75;21095;-90
2022/04/11 00:25:26;;;;;;;3.80;2.70;;;9.20;99.90;;;;;;1906832;74;21090;-90
2022/04/11 00:28:18;;;;;;;4.25;2.47;;;9.20;99.90;;;;;;1914737;74;21136;-90
2022/04/11 00:31:10;;;;;;;3.92;2.70;;;9.20;99.90;;;;;;1909372;75;21102;-90
2022/04/11 00:34:01;;;;;;;3.47;2.25;;;9.10;99.90;;;;;;1902363;75;21129;-90
2022/04/11 00:36:52;;;;;;;3.67;2.42;;;9.10;99.90;;;;;;1924448;74;21148;-90
2022/04/11 00:39:44;;;;;;;3.58;2.40;;;9.10;99.90;;;;;;1924949;74;21043;-90
2022/04/11 00:42:35;;;;;;;3.65;2.40;;;9.10;99.90;;;;;;1919328;74;21067;-89
2022/04/11 00:45:26;;;;;;;3.65;2.37;;;9.00;99.90;;;;;;1906112;74;21035;-90
2022/04/11 00:48:18;;;;;;;3.67;2.40;;;9.00;99.90;;;;;;1903174;74;21499;-90
2022/04/11 00:51:12;;;;;;;4.70;2.20;;;9.10;99.90;;;;;;1918823;74;21159;-90
2022/04/11 00:54:04;;;;;;;2.50;2.00;;;9.20;99.90;;;;;;1920417;74;21176;-88
2022/04/11 00:56:57;;;;;;;3.45;1.77;;;9.20;99.90;;;;;;1915312;74;21059;-89
2022/04/11 00:59:49;;;;;;;2.65;1.80;;;9.10;99.90;;;;;;1913422;74;21088;-89
2022/04/11 01:02:41;;;;;;;2.10;1.90;;;9.00;99.90;;;;;;1913369;74;21188;-89
2022/04/11 01:05:32;;;;;;;2.42;1.70;;;8.90;99.90;;;;;;1926804;74;21047;-89
2022/04/11 01:08:24;;;;;;;3.00;1.87;;;8.90;99.90;;;;;;1913074;74;21051;-89
2022/04/11 01:11:15;;;;;;;3.05;2.00;;;8.90;99.90;;;;;;1912670;74;21122;-90
2022/04/11 01:14:07;;;;;;;2.80;1.47;;;8.80;99.90;;;;;;1912476;74;21158;-89
2022/04/11 01:16:59;;;;;;;2.75;1.35;;;8.70;99.90;;;;;;1929767;74;21498;-92
2022/04/11 01:19:51;;;;;;;2.77;1.72;;;8.70;99.90;;;;;;1917243;75;21122;-90
2022/04/11 01:22:43;;;;;;;3.10;1.65;;;8.60;99.90;;;;;;1917019;75;21058;-90
2022/04/11 01:25:35;;;;;;;2.37;1.30;;;8.60;99.90;;;;;;1918204;75;21136;-89
2022/04/11 01:28:27;;;;;;;2.52;1.65;;;8.50;99.90;;;;;;1918183;75;21055;-89
2022/04/11 01:31:19;;;;;;;3.15;1.85;;;8.50;99.90;;;;;;1904690;75;21040;-89
2022/04/11 01:34:11;;;;;;;2.45;1.50;;;8.50;99.90;;;;;;1887082;75;21090;-89
2022/04/11 01:37:03;;;;;;;2.95;1.67;;;8.50;99.90;;;;;;1939722;73;21124;-89
2022/04/11 01:39:55;;;;;;;3.67;1.75;;;8.40;99.90;;;;;;1904216;75;21115;-89
2022/04/11 01:42:46;;;;;;;2.58;1.67;;;8.40;99.90;;;;;;1904173;75;21188;-91
2022/04/11 01:45:38;;;;;;;2.40;1.40;;;8.40;99.90;;;;;;1904868;74;21110;-90
2022/04/11 01:48:30;;;;;;;3.08;1.62;;;8.30;99.90;;;;;;1938545;73;21106;-90
2022/04/11 01:51:21;;;;;;;2.98;1.37;;;8.20;99.90;;;;;;1916446;75;21123;-89
2022/04/11 01:54:13;;;;;;;1.92;1.20;;;8.20;99.90;;;;;;1917075;75;21054;-89
2022/04/11 01:57:05;;;;;;;2.80;1.52;;;8.10;99.90;;;;;;1917056;75;21096;-89
2022/04/11 01:59:56;;;;;;;2.50;1.55;;;8.10;99.90;;;;;;1904587;75;21092;-89
2022/04/11 02:02:48;;;;;;;2.98;1.70;;;8.00;99.90;;;;;;1922542;73;21154;-89
2022/04/11 02:05:42;;;;;;;2.70;1.52;;;8.00;99.90;;;;;;1928140;73;21592;-89
2022/04/11 02:08:33;;;;;;;3.42;1.62;;;8.00;99.90;;;;;;1916900;75;21160;-90
2022/04/11 02:11:26;;;;;;;2.10;1.72;;;7.90;99.90;;;;;;1917178;75;21516;-89
2022/04/11 02:14:18;;;;;;;1.80;1.27;;;8.00;99.90;;;;;;1917365;75;21092;-89
2022/04/11 02:17:10;;;;;;;2.42;1.37;;;8.10;99.90;;;;;;1917712;73;21095;-89
2022/04/11 02:20:01;;;;;;;1.95;1.65;;;8.10;99.90;;;;;;1917165;74;21174;-89
2022/04/11 02:22:54;;;;;;;2.33;1.75;;;8.10;99.90;;;;;;1917065;75;21182;-89
2022/04/11 02:25:45;;;;;;;3.35;1.92;;;8.10;99.90;;;;;;1916826;75;21579;-91
2022/04/11 02:28:37;;;;;;;3.40;1.72;;;8.00;99.90;;;;;;1916988;75;21047;-89
2022/04/11 02:31:28;;;;;;;2.45;1.90;;;8.00;99.90;;;;;;1917047;75;21052;-89
2022/04/11 02:34:20;;;;;;;2.50;1.87;;;7.90;99.90;;;;;;1917037;75;21059;-89
2022/04/11 02:37:11;;;;;;;3.27;1.55;;;7.90;99.90;;;;;;1927838;73;21068;-89
2022/04/11 02:40:07;;;;;;;1.82;1.32;;;7.90;99.90;;;;;;1923398;73;21158;-89
2022/04/11 02:43:00;;;;;;;5.12;2.00;;;7.90;99.90;;;;;;1917067;75;21129;-89
2022/04/11 02:45:52;;;;;;;2.05;1.25;;;7.80;99.90;;;;;;1916819;75;21082;-89
2022/04/11 02:48:45;;;;;;;1.67;1.47;;;7.80;99.90;;;;;;1917097;75;21054;-90
2022/04/11 02:51:47;;;;;;;2.67;1.12;;;7.80;99.90;;;;;;1926718;73;21055;-89
2022/04/11 02:54:41;;;;;;;3.52;1.30;;;7.80;99.90;;;;;;1923625;73;21171;-90
2022/04/11 02:57:32;;;;;;;2.40;1.40;;;7.70;99.90;;;;;;1917060;75;21168;-90
2022/04/11 03:00:24;;;;;;;1.95;1.32;;;7.60;99.90;;;;;;1916974;75;21111;-90
2022/04/11 03:03:22;;;;;;;3.35;1.50;;;7.50;99.90;;;;;;1917152;75;21200;-90
2022/04/11 03:06:15;;;;;;;1.75;1.25;;;7.50;99.90;;;;;;1939757;73;21066;-89
2022/04/11 03:09:08;;;;;;;2.00;1.45;;;7.40;99.90;;;;;;1917281;75;21051;-90
2022/04/11 03:12:00;;;;;;;3.20;1.98;;;7.40;99.90;;;;;;1917568;75;21090;-90
2022/04/11 03:14:52;;;;;;;3.60;1.50;;;7.40;99.90;;;;;;1917211;75;21066;-90
2022/04/11 03:17:44;;;;;;;3.05;1.80;;;7.40;99.90;;;;;;1919941;73;21141;-91
2022/04/11 03:20:36;;;;;;;3.40;1.72;;;7.40;99.90;;;;;;1910599;73;21057;-91
2022/04/11 03:23:28;;;;;;;2.70;1.65;;;7.60;99.90;;;;;;1917138;75;21031;-89
2022/04/11 03:26:20;;;;;;;2.10;1.90;;;7.70;99.90;;;;;;1917171;75;21050;-90
2022/04/11 03:29:12;;;;;;;3.35;1.80;;;7.60;99.90;;;;;;1917221;75;21118;-90
2022/04/11 03:32:03;;;;;;;3.05;1.90;;;7.50;99.90;;;;;;1918583;73;21123;-90
2022/04/11 03:34:57;;;;;;;2.90;1.60;;;7.40;99.90;;;;;;1917166;75;21054;-89
2022/04/11 03:37:48;;;;;;;3.62;2.00;;;7.30;99.90;;;;;;1917127;75;21067;-90
2022/04/11 03:40:41;;;;;;;3.27;2.00;;;7.30;99.90;;;;;;1935960;74;21099;-90
2022/04/11 03:43:34;;;;;;;2.40;1.85;;;7.30;99.90;;;;;;1918443;74;21085;-89
2022/04/11 03:46:27;;;;;;;6.05;1.85;;;7.30;99.90;;;;;;1916957;75;21051;-89
2022/04/11 03:49:18;;;;;;;4.42;2.08;;;7.30;99.90;;;;;;1938122;73;21631;-90
2022/04/11 03:52:10;;;;;;;3.83;2.17;;;7.20;99.90;;;;;;1935296;73;21067;-88
2022/04/11 03:55:03;;;;;;;2.70;2.10;;;7.10;99.90;;;;;;1917180;75;21054;-89
2022/04/11 03:57:56;;;;;;;2.77;2.10;;;7.10;99.90;;;;;;1939919;73;21163;-90
2022/04/11 04:00:47;;;;;;;3.95;2.05;;;7.10;99.90;;;;;;1917341;75;21050;-90
2022/04/11 04:03:41;;;;;;;2.85;1.90;;;7.10;99.90;;;;;;1917305;75;21075;-88
2022/04/11 04:06:34;;;;;;;2.75;2.10;;;7.10;99.90;;;;;;1917112;75;21101;-89
2022/04/11 04:09:27;;;;;;;3.25;2.02;;;7.10;99.90;;;;;;1917161;75;21127;-90
2022/04/11 04:12:21;;;;;;;3.08;2.15;;;7.00;99.90;;;;;;1917274;75;21220;-90
2022/04/11 04:15:20;;;;;;;4.37;3.25;;;7.10;99.90;;;;;;1937909;73;21106;-90
2022/04/11 04:18:12;;;;;;;6.97;3.12;;;7.00;99.90;;;;;;1918843;73;21069;-90
2022/04/11 04:21:04;;;;;;;3.62;3.20;;;7.00;99.90;;;;;;1911353;75;21119;-90
2022/04/11 04:23:55;;;;;;;3.40;3.10;;;7.00;99.90;;;;;;1904570;75;21078;-90
2022/04/11 04:26:49;;;;;;;4.70;3.00;;;6.90;99.90;;;;;;1905112;74;21129;-89
2022/04/11 04:29:40;;;;;;;3.80;2.65;;;6.90;99.90;;;;;;1946708;73;21112;-90
2022/04/11 04:32:32;;;;;;;3.98;2.83;;;6.80;99.90;;;;;;1904619;75;21124;-91
2022/04/11 04:35:23;;;;;;;3.37;2.70;;;6.90;99.90;;;;;;1917055;75;21138;-90
2022/04/11 04:38:15;;;;;;;6.05;2.52;;;6.90;99.90;;;;;;1904609;75;21095;-89
2022/04/11 04:41:08;;;;;;;4.95;2.67;;;6.80;99.90;;;;;;1904788;75;21177;-89
2022/04/11 04:44:00;;;;;;;4.78;1.98;;;6.80;99.90;;;;;;1918459;74;21055;-90
2022/04/11 04:46:52;;;;;;;3.08;2.15;;;6.70;99.90;;;;;;1889165;73;21048;-90
2022/04/11 04:49:46;;;;;;;3.72;2.17;;;6.70;99.90;;;;;;1927807;74;21672;-90
2022/04/11 04:52:39;;;;;;;3.25;1.95;;;6.70;99.90;;;;;;1904744;75;21062;-89
2022/04/11 04:55:31;;;;;;;5.35;2.30;;;6.60;99.90;;;;;;1917092;75;21051;-89
2022/04/11 04:58:22;;;;;;;2.60;1.72;;;6.60;99.90;;;;;;1917065;75;21211;-90
2022/04/11 05:01:15;;;;;;;3.27;2.10;;;6.60;99.90;;;;;;1917068;75;21164;-90
2022/04/11 05:04:08;;;;;;;4.17;2.10;;;6.60;99.90;;;;;;1917005;75;21080;-90
2022/04/11 05:07:00;;;;;;;2.87;1.80;;;6.60;99.90;;;;;;1935037;73;21036;-90
2022/04/11 05:09:52;;;;;;;3.90;2.30;;;6.70;99.90;;;;;;1905556;75;21165;-91
2022/04/11 05:12:49;;;;;;;3.02;2.20;;;6.70;99.90;;;;;;1905381;75;21060;-89
2022/04/11 05:15:42;;;;;;;5.67;2.00;;;6.70;99.90;;;;;;1904772;75;21080;-90
2022/04/11 05:18:36;;;;;;;4.47;2.10;;;6.70;99.90;;;;;;1926596;74;21145;-90
2022/04/11 05:21:27;;;;;;;5.40;2.02;;;6.70;99.90;;;;;;1904436;74;21111;-90
2022/04/11 05:24:21;;;;;;;4.78;2.10;;;6.70;99.90;;;;;;1916908;75;21129;-90
2022/04/11 05:27:13;;;;;;;3.85;2.30;;;6.70;99.90;;;;;;1906658;75;21492;-89
2022/04/11 05:30:06;;;;;;;3.62;2.12;;;6.70;99.90;;;;;;1916995;75;21136;-90
2022/04/11 05:32:59;;;;;;;3.98;2.22;;;6.80;99.90;;;;;;1916894;75;21064;-89
2022/04/11 05:35:50;;;;;;;4.80;2.08;;;6.80;99.90;;;;;;1917004;75;21622;-90
2022/04/11 05:38:43;;;;;;;3.35;2.20;;;6.90;99.90;;;;;;1939168;73;21067;-90
2022/04/11 05:41:35;;;;;;;2.65;2.00;;;6.90;99.90;;;;;;1916982;75;21217;-90
2022/04/11 05:44:26;;;;;;;4.17;2.05;;;6.90;99.90;;;;;;1916908;75;21055;-90
2022/04/11 05:47:18;;;;;;;3.42;2.00;;;7.00;99.90;;;;;;1918029;73;21058;-91
2022/04/11 05:50:12;;;;;;;3.72;2.33;;;7.00;99.90;;;;;;1926958;74;21062;-90
2022/04/11 05:53:10;;;;;;;4.22;2.10;;;7.00;99.90;;;;;;1917057;73;21063;-95
2022/04/11 05:56:02;;;;;;;2.42;2.10;;;7.10;99.90;;;;;;1916746;73;21149;-88
2022/04/11 05:58:54;;;;;;;3.62;2.05;;;7.20;99.90;;;;;;1868103;77;21110;-88
2022/04/11 06:01:45;;;;;;;5.92;2.33;;;7.30;99.90;;;;;;1848817;77;21522;-87
2022/04/11 06:04:38;;;;;;;5.17;2.17;;;7.30;99.90;;;;;;1866342;77;21068;-88
2022/04/11 06:07:32;;;;;;;6.25;2.60;;;7.30;99.90;;;;;;1843713;76;21260;-89
2022/04/11 06:10:22;;;;;;;3.25;1.90;;;7.30;99.90;;;;;;1836837;78;21112;-88
2022/04/11 06:13:14;;;;;;;3.27;1.90;;;7.30;99.90;;;;;;1827531;78;21122;-89
2022/04/11 06:16:06;;;;;;;4.53;2.47;;;7.50;99.90;;;;;;1882417;75;21176;-88
2022/04/11 06:18:58;;;;;;;2.70;1.80;;;7.60;99.90;;;;;;1860774;77;21161;-87
2022/04/11 06:21:51;;;;;;;4.72;2.40;;;7.50;99.90;;;;;;1836339;77;21059;-89
2022/04/11 06:24:42;;;;;;;5.28;2.33;;;7.50;99.90;;;;;;1948966;73;21041;-89
2022/04/11 06:30:16;;;;;;;5.72;2.15;;;7.50;99.90;;;;;;1949955;72;22224;-83
2022/04/11 06:33:25;;;;;;;3.10;2.00;;;7.60;99.90;;;;;;1887159;75;21168;-87
2022/04/11 06:36:35;;;;;;;5.42;1.77;;;7.70;99.90;;;;;;1895159;73;21355;-80
2022/04/11 06:39:27;;;;;;;3.47;1.95;;;7.70;99.90;;;;;;1898499;75;21111;-80
2022/04/11 06:42:20;;;;;;;5.47;2.27;;;7.80;99.90;;;;;;1897178;75;21110;-79
2022/04/11 06:45:14;;;;;;;3.25;1.98;;;7.90;99.90;;;;;;1894905;75;21094;-77
2022/04/11 06:48:09;;;;;;;7.55;2.05;;;8.10;99.90;;;;;;1905166;75;21089;-77
2022/04/11 06:51:00;;;;;;;6.35;1.95;;;8.20;99.90;;;;;;1904921;75;21088;-78
2022/04/11 06:53:54;;;;;;;3.12;2.05;;;8.30;99.90;;;;;;1900603;75;21592;-77
2022/04/11 06:56:45;;;;;;;2.77;1.80;;;8.40;99.90;;;;;;1895103;75;21095;-78
2022/04/11 07:02:30;;;;;;;2.45;1.70;;;8.60;99.90;;;;;;1974649;72;22111;-78
2022/04/11 07:05:42;;;;;;;2.83;1.98;;;8.80;99.90;;;;;;1930638;73;21043;-78
2022/04/11 07:08:52;;;;;;;4.17;1.42;;;9.00;99.90;;;;;;1917540;73;21574;-77
2022/04/11 07:11:43;;;;;;;3.58;1.60;;;9.10;99.90;;;;;;1924157;73;21130;-78
2022/04/11 07:14:34;;;;;;;3.72;2.40;;;9.10;99.90;;;;;;1928747;73;21187;-79
2022/04/11 07:17:28;;;;;;;6.53;2.25;;;9.20;99.90;;;;;;1928611;73;21059;-78
2022/04/11 07:20:20;;;;;;;3.58;2.05;;;9.10;99.90;;;;;;1927993;73;21058;-78
2022/04/11 07:25:51;;;;;;;2.35;1.80;;;9.40;99.90;;;;;;1952285;72;22208;-78
2022/04/11 07:29:02;;;;;;;3.47;2.50;;;9.20;99.90;;;;;;1895266;74;21091;-77
2022/04/11 07:32:12;;;;;;;5.33;1.98;;;9.00;99.90;;;;;;1895391;75;21051;-77
2022/04/11 07:35:04;;;;;;;2.87;1.80;;;9.00;99.90;;;;;;1895695;75;21134;-77
2022/04/11 07:37:57;;;;;;;4.45;1.65;;;9.10;99.90;;;;;;1910205;73;21058;-78
2022/04/11 07:40:49;;;;;;;2.90;1.62;;;9.20;99.90;;;;;;1898440;75;21128;-78
2022/04/11 07:43:41;;;;;;;5.28;2.40;;;9.30;99.90;;;;;;1905884;75;21458;-77
2022/04/11 07:46:32;;;;;;;3.50;2.00;;;9.40;99.90;;;;;;1906129;75;21168;-77
2022/04/11 07:49:23;;;;;;;2.77;2.05;;;9.40;99.90;;;;;;1883580;76;21219;-77
2022/04/11 07:52:15;;;;;;;5.85;2.17;;;9.50;99.90;;;;;;1899368;75;21060;-78
2022/04/11 07:55:08;;;;;;;4.95;2.02;;;9.50;99.90;;;;;;1885023;75;21172;-78
2022/04/11 07:57:59;;;;;;;5.00;2.17;;;9.40;99.90;;;;;;1906428;75;21121;-77
2022/04/11 08:00:52;;;;;;;8.00;2.50;;;9.60;99.90;;;;;;1884327;75;21508;-77
2022/04/11 08:03:44;;;;;;;3.33;2.20;;;9.70;99.90;;;;;;1884406;75;21670;-77
2022/04/11 08:06:36;;;;;;;5.25;2.12;;;9.70;99.90;;;;;;1883561;75;21154;-77
2022/04/11 08:09:27;;;;;;;4.35;2.37;;;9.90;99.90;;;;;;1884361;75;21130;-76
2022/04/11 08:12:21;;;;;;;4.80;2.00;;;10.00;99.90;;;;;;1906192;75;21102;-77
2022/04/11 08:15:12;;;;;;;2.22;1.90;;;10.10;99.90;;;;;;1903544;75;21134;-77
2022/04/11 08:18:04;;;;;;;4.05;2.20;;;10.20;99.90;;;;;;1884238;75;21476;-77
2022/04/11 08:20:56;;;;;;;4.20;1.90;;;10.30;99.90;;;;;;1893255;75;21063;-79
2022/04/11 08:23:48;;;;;;;3.85;2.40;;;10.40;99.90;;;;;;1895556;75;21573;-77
2022/04/11 08:26:39;;;;;;;4.30;2.15;;;10.50;99.90;;;;;;1912355;74;21065;-77
2022/04/11 08:29:30;;;;;;;3.60;2.10;;;10.70;99.90;;;;;;1839981;77;21098;-76
2022/04/11 08:32:22;;;;;;;3.40;2.20;;;10.70;99.90;;;;;;1911209;74;21502;-77
2022/04/11 08:35:14;;;;;;;3.83;2.25;;;10.90;99.90;;;;;;1906696;74;21574;-77
2022/04/11 08:38:09;;;;;;;4.85;2.02;;;11.10;99.90;;;;;;1912286;73;21042;-77
2022/04/11 08:41:03;;;;;;;3.40;2.40;;;11.20;99.90;;;;;;1917153;74;21134;-77
2022/04/11 08:43:56;;;;;;;2.33;1.82;;;11.30;99.90;;;;;;1912273;74;21574;-77
2022/04/11 08:46:48;;;;;;;3.75;2.20;;;11.30;99.90;;;;;;1903238;74;21204;-77
2022/04/11 08:49:40;;;;;;;3.77;2.15;;;11.40;99.90;;;;;;1899821;75;21063;-77
2022/04/11 08:52:33;;;;;;;7.53;2.50;;;11.40;99.90;;;;;;1919334;74;21054;-78
2022/04/11 08:58:05;;;;;;;3.55;2.17;;;11.40;99.90;;;;;;1968790;72;22182;-78
2022/04/11 09:01:15;;;;;;;3.08;2.30;;;11.30;99.90;;;;;;1932709;73;21192;-77
2022/04/11 09:04:26;;;;;;;3.47;2.20;;;11.40;99.90;;;;;;1939126;73;21101;-77
2022/04/11 09:07:17;;;;;;;4.45;2.50;;;11.40;99.90;;;;;;1879635;74;21125;-76
2022/04/11 09:10:10;;;;;;;4.33;2.35;;;11.20;99.90;;;;;;1920518;73;21051;-76
2022/04/11 09:13:03;;;;;;;4.75;2.47;;;11.20;99.90;;;;;;1916966;75;21599;-76
2022/04/11 09:15:57;;;;;;;12.40;2.83;;;11.30;99.90;;;;;;1924333;73;21554;-77
2022/04/11 09:18:50;;;;;;;33.88;4.70;;;11.40;99.90;;;;;;1948405;73;21526;-76
2022/04/11 09:21:47;;;;;;;5.22;2.20;;;11.30;99.90;;;;;;1916808;75;21545;-77
2022/04/11 09:24:40;;;;;;;3.85;2.52;;;11.30;99.90;;;;;;1865060;76;21183;-76
2022/04/11 09:27:31;;;;;;;4.78;2.47;;;11.30;99.90;;;;;;1917017;75;21217;-78
2022/04/11 09:30:25;;;;;;;5.45;2.60;;;11.30;99.90;;;;;;1917137;75;21430;-76
2022/04/11 09:33:16;;;;;;;3.87;2.37;;;11.50;99.90;;;;;;1916910;75;21098;-77
2022/04/11 09:36:08;;;;;;;4.42;2.20;;;11.50;99.90;;;;;;1916846;75;21164;-76
2022/04/11 09:39:00;;;;;;;10.20;2.25;;;11.70;99.90;;;;;;1916475;73;21109;-76
2022/04/11 09:41:53;;;;;;;6.33;2.10;;;11.80;99.90;;;;;;1939391;73;21183;-77
2022/04/11 09:44:44;;;;;;;4.42;2.22;;;11.90;99.90;;;;;;1939208;73;21186;-78
2022/04/11 09:47:39;;;;;;;5.97;1.82;;;12.00;99.90;;;;;;1916736;75;21135;-77
2022/04/11 09:50:34;;;;;;;2.90;1.50;;;12.20;99.90;;;;;;1917085;75;21208;-78
2022/04/11 09:53:28;;;;;;;5.05;1.47;;;12.20;99.90;;;;;;1916211;75;21139;-77
2022/04/11 09:56:21;;;;;;;4.08;1.50;;;12.50;99.90;;;;;;1919794;73;21164;-77
2022/04/11 09:59:13;;;;;;;6.28;1.60;;;12.60;99.90;;;;;;1928812;73;21126;-80
2022/04/11 10:02:07;;;;;;;2.55;1.22;;;12.80;99.90;;;;;;1916708;75;21111;-78
2022/04/11 10:05:00;;;;;;;3.72;1.40;;;12.80;99.90;;;;;;1929112;73;21106;-77
2022/04/11 10:07:54;;;;;;;3.33;1.40;;;12.90;99.90;;;;;;1920861;73;21075;-76
2022/04/11 10:10:45;;;;;;;2.17;1.12;;;13.20;99.90;;;;;;1915596;75;21080;-77
2022/04/11 10:13:38;;;;;;;2.17;1.00;;;13.30;99.90;;;;;;1916116;75;21118;-76
2022/04/11 10:16:31;;;;;;;1.70;0.90;;;13.40;99.90;;;;;;1930246;73;21599;-76
2022/04/11 10:19:31;;;;;;;1.82;1.00;;;13.50;99.90;;;;;;1918495;73;21200;-76
2022/04/11 10:22:28;;;;;;;6.70;1.30;;;13.60;99.90;;;;;;1915856;75;21072;-77
2022/04/11 10:25:21;;;;;;;4.35;1.10;;;13.50;99.90;;;;;;1916407;75;21640;-77
2022/04/11 10:28:23;;;;;;;2.55;1.00;;;13.70;99.90;;;;;;1916323;75;21443;-79
2022/04/11 10:35:45;;;;;;;2.80;0.98;;;13.80;99.90;;;;;;1769827;75;21094;-78
2022/04/11 10:38:37;;;;;;;2.22;0.98;;;14.00;99.90;;;;;;1915867;73;21179;-77
2022/04/11 10:42:09;;;;;;;1.92;0.68;;;14.20;99.90;;;;;;1916110;73;21116;-76
2022/04/11 10:45:01;;;;;;;2.08;0.70;;;14.30;99.90;;;;;;1915994;75;21211;-77
2022/04/11 10:47:52;;;;;;;2.33;0.90;;;14.50;99.90;;;;;;1916113;75;21070;-76
2022/04/11 10:50:46;;;;;;;2.45;0.80;;;14.60;99.90;;;;;;1916080;75;21102;-77
2022/04/11 10:54:05;;;;;;;1.98;0.90;;;14.80;99.90;;;;;;1915884;75;21168;-77
2022/04/11 10:56:56;;;;;;;4.58;1.20;;;14.80;99.90;;;;;;1916448;75;21176;-79
2022/04/11 11:00:12;;;;;;;1.82;0.70;;;15.00;99.90;;;;;;1938748;73;21171;-78
2022/04/11 11:06:22;;;;;;;2.87;0.88;;;15.30;99.90;;;;;;1948276;72;22577;-79
2022/04/11 11:09:35;;;;;;;3.67;0.80;;;15.40;99.90;;;;;;1888232;73;21121;-77
2022/04/11 11:12:45;;;;;;;2.27;0.90;;;15.70;99.90;;;;;;1912496;75;21189;-77
2022/04/11 11:15:37;;;;;;;1.42;0.70;;;16.00;99.90;;;;;;1914687;75;21110;-77
2022/04/11 11:18:30;;;;;;;5.17;0.90;;;16.20;99.90;;;;;;1902161;75;21091;-77
2022/04/11 11:21:23;;;;;;;1.87;0.82;;;16.30;99.90;;;;;;1897367;75;21125;-77
2022/04/11 11:24:16;;;;;;;1.65;0.88;;;16.50;99.90;;;;;;1894415;75;21126;-77
2022/04/11 11:27:08;;;;;;;2.40;1.00;;;16.70;99.90;;;;;;1912065;75;21664;-77
2022/04/11 11:30:02;;;;;;;1.45;0.70;;;16.80;99.90;;;;;;1905991;75;21546;-77
2022/04/11 11:32:56;;;;;;;1.52;0.70;;;17.10;99.90;;;;;;1901665;75;21143;-77
2022/04/11 11:35:52;;;;;;;2.30;0.80;;;17.30;99.90;;;;;;1883667;75;21159;-78
2022/04/11 11:38:43;;;;;;;3.20;0.78;;;17.50;99.90;;;;;;1902459;73;21461;-77
2022/04/11 11:41:46;;;;;;;1.70;0.70;;;17.60;99.90;;;;;;1883969;75;21138;-77
2022/04/11 11:44:45;;;;;;;2.10;0.85;;;17.70;99.90;;;;;;1956932;73;21127;-77
2022/04/11 11:47:39;;;;;;;3.42;0.78;;;18.10;99.90;;;;;;1962359;73;21197;-77
2022/04/11 11:50:31;;;;;;;2.20;0.72;;;17.90;99.90;;;;;;1938855;73;21098;-77
2022/04/11 11:53:23;;;;;;;1.27;0.50;;;17.90;99.90;;;;;;1958901;73;21137;-77
2022/04/11 11:56:14;;;;;;;1.55;0.50;;;18.30;99.90;;;;;;1959589;73;21049;-77
2022/04/11 12:04:18;;;;;;;1.85;0.55;;;18.70;99.90;;;;;;1944526;72;22869;-77
2022/04/11 12:05:07;;;;;;;1.37;0.40;;;18.90;99.90;;;;;;1900899;75;21121;-77
2022/04/11 12:08:17;;;;;;;2.10;0.50;;;19.20;99.90;;;;;;1897158;73;21078;-77
2022/04/11 12:11:10;;;;;;;1.02;0.60;;;19.30;99.90;;;;;;1886619;75;21066;-77
2022/04/11 12:14:03;;;;;;;1.27;0.45;;;19.50;99.90;;;;;;1909620;75;21094;-77
2022/04/11 12:17:01;;;;;;;3.83;0.60;;;19.70;99.90;;;;;;1896430;75;21121;-77
2022/04/11 12:19:53;;;;;;;2.50;0.53;;;19.80;99.90;;;;;;1900893;75;21173;-77
2022/04/11 12:23:02;;;;;;;2.60;0.70;;;20.00;99.90;;;;;;1894826;73;21050;-77
2022/04/11 12:25:55;;;;;;;1.42;0.50;;;20.10;99.90;;;;;;1907725;73;21127;-76
2022/04/11 12:28:46;;;;;;;2.98;0.55;;;20.50;99.70;;;;;;1906131;75;21118;-77
2022/04/11 12:31:43;;;;;;;2.30;0.60;;;20.90;99.10;;;;;;1893455;75;21094;-77
2022/04/11 12:34:37;;;;;;;3.72;0.65;;;21.20;98.50;;;;;;1899216;75;21101;-77
2022/04/11 12:37:28;;;;;;;1.52;0.50;;;21.50;96.90;;;;;;1897041;75;21119;-77
2022/04/11 12:40:20;;;;;;;0.82;0.40;;;21.60;96.50;;;;;;1905504;73;21115;-77
2022/04/11 12:43:13;;;;;;;1.42;0.50;;;21.70;95.80;;;;;;1887277;75;21125;-76
2022/04/11 12:46:08;;;;;;;3.58;0.60;;;21.80;94.70;;;;;;1896104;73;21102;-77
2022/04/11 12:49:01;;;;;;;2.22;0.60;;;21.80;93.90;;;;;;1899678;75;21596;-77
2022/04/11 12:52:01;;;;;;;0.47;0.40;;;21.90;93.10;;;;;;1905901;75;21055;-77
2022/04/11 12:54:55;;;;;;;2.17;0.60;;;22.00;92.80;;;;;;1899881;73;21548;-77
2022/04/11 12:57:46;;;;;;;1.07;0.65;;;22.10;92.20;;;;;;1905862;75;21078;-77
2022/04/11 13:00:39;;;;;;;0.95;0.50;;;22.20;92.10;;;;;;1905565;74;21142;-77
2022/04/11 13:03:31;;;;;;;1.07;0.70;;;22.30;91.30;;;;;;1926156;74;21179;-77
2022/04/11 13:06:23;;;;;;;0.90;0.50;;;22.30;91.20;;;;;;1904374;74;21062;-77
2022/04/11 13:09:14;;;;;;;1.75;0.60;;;22.40;90.80;;;;;;1917749;73;21690;-77
2022/04/11 13:12:10;;;;;;;1.10;0.60;;;22.40;90.30;;;;;;1911736;74;21147;-77
2022/04/11 13:15:01;;;;;;;0.70;0.40;;;22.50;89.60;;;;;;1909498;73;21148;-77
2022/04/11 13:21:03;;;;;;;0.60;0.40;;;22.40;88.90;;;;;;1895887;74;21106;-77
2022/04/11 13:23:55;;;;;;;1.12;0.60;;;22.50;88.20;;;;;;1912039;73;21126;-77
2022/04/11 13:26:48;;;;;;;0.42;0.33;;;22.40;86.80;;;;;;1892434;74;21152;-77
2022/04/11 13:29:39;;;;;;;1.17;0.50;;;22.50;86.10;;;;;;1892852;76;22033;-77
2022/04/11 13:32:30;;;;;;;0.98;0.40;;;22.60;84.60;;;;;;1892875;74;21091;-77
2022/04/11 13:35:22;;;;;;;1.17;0.47;;;22.70;84.50;;;;;;1899631;74;21087;-77
2022/04/11 13:38:14;;;;;;;0.90;0.60;;;22.70;83.40;;;;;;1903375;74;21121;-77
2022/04/11 13:41:07;;;;;;;1.40;0.60;;;22.60;83.40;;;;;;1892876;76;21066;-77
2022/04/11 13:43:59;;;;;;;1.92;0.62;;;22.60;83.00;;;;;;1906693;74;21229;-77
2022/04/11 13:46:51;;;;;;;3.70;0.70;;;22.60;82.30;;;;;;1903734;74;21175;-77
2022/04/11 13:49:43;;;;;;;2.37;0.50;;;22.60;82.80;;;;;;1904079;74;21098;-77
2022/04/11 13:52:35;;;;;;;3.65;0.53;;;22.60;82.20;;;;;;1905082;74;21155;-77
2022/04/11 13:55:26;;;;;;;1.90;0.60;;;22.70;81.90;;;;;;1908315;74;21271;-77
2022/04/11 13:58:17;;;;;;;0.62;0.40;;;22.80;82.30;;;;;;1894850;74;21056;-77
2022/04/11 14:01:09;;;;;;;2.33;0.60;;;23.10;82.20;;;;;;1925999;73;21546;-77
2022/04/11 14:04:02;;;;;;;2.10;0.40;;;23.20;81.10;;;;;;1878700;75;21111;-77
2022/04/11 14:06:54;;;;;;;2.27;0.50;;;23.20;80.70;;;;;;1888331;75;21202;-77
2022/04/11 14:09:45;;;;;;;1.95;0.50;;;23.40;80.40;;;;;;1890353;75;21051;-77
2022/04/11 14:12:37;;;;;;;0.80;0.50;;;23.90;79.50;;;;;;1871866;75;21061;-77
2022/04/11 14:15:29;;;;;;;0.98;0.40;;;24.40;77.50;;;;;;1885840;75;21133;-77
2022/04/11 14:18:21;;;;;;;1.45;0.47;;;24.70;76.30;;;;;;1885402;75;21106;-76
2022/04/11 14:21:13;;;;;;;2.20;0.60;;;24.90;75.20;;;;;;1886464;75;21067;-77
2022/04/11 14:24:09;;;;;;;1.45;0.50;;;25.00;74.90;;;;;;1894408;75;21106;-77
2022/04/11 14:27:00;;;;;;;2.45;0.50;;;25.40;73.10;;;;;;1911847;75;21090;-77
2022/04/11 14:29:52;;;;;;;0.93;0.40;;;25.30;72.50;;;;;;1884660;75;21593;-78
2022/04/11 14:32:45;;;;;;;1.87;0.50;;;25.60;71.70;;;;;;1893438;75;21088;-77
2022/04/11 14:35:39;;;;;;;1.07;0.60;;;26.00;70.40;;;;;;1906002;75;21050;-77
2022/04/11 14:38:32;;;;;;;1.05;0.50;;;26.20;69.50;;;;;;1893375;75;21125;-77
2022/04/11 14:41:24;;;;;;;0.93;0.50;;;26.50;68.20;;;;;;1905984;75;21101;-78
2022/04/11 14:44:16;;;;;;;1.07;0.50;;;26.90;67.80;;;;;;1883798;76;21109;-77
2022/04/11 14:49:58;;;;;;;1.20;0.50;;;27.20;65.50;;;;;;1946709;72;22082;-77
2022/04/11 14:53:10;;;;;;;0.90;0.50;;;27.30;63.90;;;;;;1912437;75;21091;-79
2022/04/11 14:56:23;;;;;;;2.45;1.55;;;27.60;63.10;;;;;;1894837;75;21175;-79
2022/04/11 14:59:15;;;;;;;0.70;0.40;;;27.50;62.10;;;;;;1909297;75;21176;-78
2022/04/11 15:02:07;;;;;;;0.50;0.40;;;27.60;61.70;;;;;;1879089;76;21513;-78
2022/04/11 15:04:58;;;;;;;0.75;0.50;;;27.80;60.50;;;;;;1884526;75;21168;-77
2022/04/11 15:07:53;;;;;;;0.80;0.55;;;28.20;60.70;;;;;;1887624;75;21075;-77
2022/04/11 15:10:45;;;;;;;0.78;0.50;;;28.00;59.80;;;;;;1892423;75;21235;-78
2022/04/11 15:13:38;;;;;;;1.65;0.42;;;28.10;59.20;;;;;;1884664;76;21094;-78
2022/04/11 15:16:33;;;;;;;1.42;0.60;;;28.10;59.30;;;;;;1884723;75;21082;-78
2022/04/11 15:19:25;;;;;;;3.27;0.50;;;28.40;58.40;;;;;;1906808;75;21055;-78
2022/04/11 15:22:16;;;;;;;0.80;0.53;;;28.20;58.00;;;;;;1899383;75;21113;-78
2022/04/11 15:25:09;;;;;;;0.72;0.50;;;27.70;58.50;;;;;;1884660;76;21482;-78
2022/04/11 15:28:04;;;;;;;1.65;0.40;;;26.90;58.90;;;;;;1900512;75;21191;-78
2022/04/11 15:31:03;;;;;;;1.85;0.60;;;26.30;59.80;;;;;;1883364;75;21155;-78
2022/04/11 15:34:00;;;;;;;1.60;0.55;;;25.80;60.60;;;;;;1902174;75;21173;-78
2022/04/11 15:36:52;;;;;;;0.68;0.50;;;25.90;61.00;;;;;;1910336;75;21173;-78
2022/04/11 15:39:48;;;;;;;1.05;0.40;;;26.50;60.40;;;;;;1884694;75;21116;-77